METAR Data
IDs: Format: Raw Decoded Include TAF

Data at: 1859 UTC 16 Oct 2021

K5C1 161835Z AUTO 02007KT 10SM CLR 20/02 A3035 RMK AO1
K5C1 161815Z AUTO 01010KT 10SM CLR 19/02 A3037 RMK AO1
K5C1 161755Z AUTO 01010G14KT 10SM CLR 18/01 A3038 RMK AO1
K5C1 161735Z AUTO 03009KT 10SM CLR 18/01 A3039 RMK AO1
K5C1 161715Z AUTO 01011G17KT 10SM CLR 18/02 A3039 RMK AO1
K5C1 161655Z AUTO 05010G16KT 10SM CLR 18/02 A3039 RMK AO1
K5C1 161635Z AUTO 02012G18KT 350V050 10SM CLR 17/01 A3040 RMK AO1
K5C1 161615Z AUTO 03010G17KT 10SM CLR 17/02 A3040 RMK AO1
K5C1 161555Z AUTO 05015G21KT 10SM CLR 17/01 A3040 RMK AO1
K5C1 161535Z AUTO 04012G21KT 10SM CLR 16/02 A3040 RMK AO1
K5C1 161515Z AUTO 03015G21KT 10SM CLR 16/02 A3039 RMK AO1
K5C1 161455Z AUTO 04011G16KT 360V060 10SM CLR 16/03 A3038 RMK AO1
K5C1 161435Z AUTO 04009G15KT 10SM CLR 15/04 A3038 RMK AO1
K5C1 161415Z AUTO 02009KT 10SM CLR 14/04 A3037 RMK AO1
K5C1 161355Z AUTO 03007KT 10SM CLR 13/04 A3037 RMK AO1
K5C1 161335Z AUTO 02008KT 10SM CLR 12/04 A3035 RMK AO1
K5C1 161315Z AUTO 01006KT 10SM CLR 12/04 A3035 RMK AO1
K5C1 161255Z AUTO 01007KT 10SM CLR 11/04 A3034 RMK AO1
K5C1 161235Z AUTO 01006KT 10SM CLR 11/04 A3034 RMK AO1
K5C1 161215Z AUTO 02006KT 10SM CLR 12/03 A3033 RMK AO1
K5C1 161155Z AUTO 01007KT 10SM CLR 12/03 A3033 RMK AO1
K5C1 161135Z AUTO 02007KT 10SM CLR 12/03 A3032 RMK AO1
K5C1 161115Z AUTO 01007KT 10SM CLR 12/03 A3031 RMK AO1
K5C1 161055Z AUTO 01010G16KT 10SM CLR 13/03 A3030 RMK AO1
K5C1 161035Z AUTO 01010G15KT 10SM CLR 13/03 A3029 RMK AO1
K5C1 161015Z AUTO 01008KT 10SM CLR 13/03 A3028 RMK AO1
K5C1 160955Z AUTO 01010KT 10SM CLR 13/03 A3027 RMK AO1
K5C1 160935Z AUTO 01009G15KT 10SM CLR 13/03 A3027 RMK AO1
K5C1 160915Z AUTO 01010G15KT 10SM CLR 14/03 A3027 RMK AO1
K5C1 160855Z AUTO 01011G17KT 10SM CLR 14/03 A3027 RMK AO1
K5C1 160835Z AUTO 01011G17KT 10SM CLR 14/03 A3027 RMK AO1
K5C1 160815Z AUTO 01011G19KT 10SM CLR 15/03 A3027 RMK AO1
K5C1 160755Z AUTO 02012G18KT 10SM CLR 15/04 A3027 RMK AO1
K5C1 160735Z AUTO 02013G20KT 10SM CLR 15/04 A3026 RMK AO1
K5C1 160715Z AUTO 01013G18KT 10SM CLR 15/05 A3026 RMK AO1
K5C1 160655Z AUTO 01013G24KT 10SM CLR 15/05 A3026 RMK AO1
K5C1 160635Z AUTO 02014G20KT 10SM CLR 16/06 A3025 RMK AO1
K5C1 160615Z AUTO 01011G21KT 10SM CLR 16/06 A3025 RMK AO1
K5C1 160555Z AUTO 02016G21KT 10SM CLR 16/06 A3024 RMK AO1
K5C1 160535Z AUTO 02011G19KT 10SM CLR 16/06 A3023 RMK AO1
K5C1 160515Z AUTO 02012G17KT 10SM CLR 17/07 A3024 RMK AO1
K5C1 160455Z AUTO 02012G21KT 10SM CLR 17/07 A3023 RMK AO1
K5C1 160435Z AUTO 02016G24KT 10SM CLR 17/08 A3023 RMK AO1
K5C1 160415Z AUTO 01014G18KT 10SM CLR 18/08 A3022 RMK AO1
K5C1 160355Z AUTO 02012KT 10SM CLR 18/08 A3021 RMK AO1
K5C1 160335Z AUTO 02010G15KT 10SM CLR 18/08 A3020 RMK AO1
K5C1 160315Z AUTO 01010G16KT 10SM CLR 18/09 A3019 RMK AO1
K5C1 160255Z AUTO 01010G16KT 10SM CLR 19/10 A3017 RMK AO1
K5C1 160235Z AUTO 02011G19KT 10SM CLR 20/10 A3016 RMK AO1
K5C1 160215Z AUTO 02012G18KT 10SM CLR 20/10 A3014 RMK AO1
K5C1 160155Z AUTO 01011G17KT 10SM CLR 20/10 A3012 RMK AO1
K5C1 160135Z AUTO 01010KT 10SM CLR 20/11 A3012 RMK AO1
K5C1 160115Z AUTO 01009KT 10SM CLR 20/11 A3011 RMK AO1
K5C1 160055Z AUTO 01010KT 10SM SCT120 20/11 A3010 RMK AO1
K5C1 160035Z AUTO 01010G17KT 10SM OVC120 21/11 A3009 RMK AO1
K5C1 160015Z AUTO 01009G14KT 10SM OVC120 21/12 A3009 RMK AO1
K5C1 152355Z AUTO 01008G14KT 10SM BKN120 21/12 A3008 RMK AO1
K5C1 152335Z AUTO 01011G16KT 10SM SCT120 22/12 A3007 RMK AO1
K5C1 152315Z AUTO 02013G19KT 10SM CLR 22/12 A3006 RMK AO1
K5C1 152255Z AUTO 01010G18KT 10SM BKN120 23/12 A3006 RMK AO1
K5C1 152235Z AUTO 01014G21KT 10SM OVC120 25/12 A3005 RMK AO1
K5C1 152215Z AUTO 36011G18KT 10SM OVC120 24/12 A3005 RMK AO1
K5C1 152155Z AUTO 36009G14KT 10SM OVC110 24/13 A3004 RMK AO1
K5C1 152135Z AUTO 36011G15KT 10SM SCT085 OVC110 23/12 A3003 RMK AO1
K5C1 152115Z AUTO 36007KT 10SM OVC095 23/12 A3003 RMK AO1
K5C1 152055Z AUTO 36015G21KT 10SM SCT095 24/11 A3001 RMK AO1
K5C1 152035Z AUTO 36012G20KT 10SM SCT110 24/13 A3001 RMK AO1
K5C1 152015Z AUTO 36012G22KT 10SM BKN110 25/16 A3000 RMK AO1
K5C1 151955Z AUTO 01004KT 10SM SCT038 SCT050 BKN070 27/20 A2999 RMK AO1
K5C1 151935Z AUTO 36006KT 10SM BKN038 BKN043 BKN050 28/20 A2999 RMK AO1
K5C1 151915Z AUTO 02005KT 10SM SCT036 28/20 A2999 RMK AO1
K5C1 151855Z AUTO 36004KT 10SM SCT033 SCT048 27/20 A3000 RMK AO1
K5C1 151835Z AUTO 00000KT 10SM SCT047 SCT075 SCT095 27/21 A3001 RMK AO1
K5C1 151815Z AUTO 00000KT 10SM SCT030 BKN042 BKN048 27/21 A3002 RMK AO1
K5C1 151755Z AUTO 00000KT 10SM BKN030 BKN040 27/22 A3002 RMK AO1
K5C1 151735Z AUTO 00000KT 10SM SCT034 BKN044 BKN055 27/22 A3003 RMK AO1
K5C1 151715Z AUTO 06003KT 10SM SCT023 BKN044 OVC050 26/22 A3003 RMK AO1
K5C1 151655Z AUTO 01005KT 10SM SCT023 BKN035 BKN042 26/22 A3004 RMK AO1
K5C1 151635Z AUTO 00000KT 10SM SCT021 SCT032 SCT038 26/22 A3004 RMK AO1
K5C1 151615Z AUTO 00000KT 10SM SCT021 SCT036 SCT044 27/23 A3004 RMK AO1
K5C1 151555Z AUTO 00000KT 10SM SCT036 26/23 A3003 RMK AO1
K5C1 151535Z AUTO 00000KT 10SM SCT010 SCT021 BKN029 24/23 A3003 RMK AO1
K5C1 151515Z AUTO 00000KT 10SM BKN012 OVC021 24/24 A3003 RMK AO1
K5C1 151455Z AUTO 00000KT 10SM BKN009 OVC017 24/24 A3001 RMK AO1
K5C1 151435Z AUTO 00000KT 7SM SCT004 OVC009 23/23 A3000 RMK AO1
K5C1 151415Z AUTO 20003KT 4SM OVC004 22/22 A3000 RMK AO1
K5C1 151355Z AUTO 00000KT 3SM OVC004 22/22 A2998 RMK AO1
K5C1 151335Z AUTO 00000KT 3SM BKN004 OVC015 22/22 A2997 RMK AO1
K5C1 151315Z AUTO 00000KT 3SM OVC004 22/22 A2997 RMK AO1
K5C1 151255Z AUTO 00000KT 3SM OVC004 22/22 A2996 RMK AO1
K5C1 151235Z AUTO 00000KT 4SM OVC004 22/22 A2996 RMK AO1
K5C1 151215Z AUTO 00000KT 4SM OVC004 22/22 A2995 RMK AO1
K5C1 151155Z AUTO 00000KT 4SM OVC004 22/22 A2994 RMK AO1
K5C1 151135Z AUTO 00000KT 5SM BKN006 BKN017 OVC022 22/22 A2994 RMK AO1
K5C1 151115Z AUTO 00000KT 5SM SCT004 BKN011 OVC018 22/22 A2993 RMK AO1
K5C1 151055Z AUTO 00000KT 5SM SCT008 OVC012 22/22 A2992 RMK AO1
K5C1 151035Z AUTO 00000KT 5SM BKN006 OVC012 22/22 A2992 RMK AO1
K5C1 151015Z AUTO 00000KT 5SM BKN004 OVC012 22/22 A2992 RMK AO1
K5C1 150955Z AUTO 00000KT 5SM BKN006 OVC012 22/22 A2992 RMK AO1
K5C1 150935Z AUTO 00000KT 4SM OVC006 21/21 A2991 RMK AO1
K5C1 150915Z AUTO 00000KT 5SM OVC004 21/21 A2991 RMK AO1
K5C1 150855Z AUTO 19005KT 4SM OVC002 21/21 A2991 RMK AO1
K5C1 150835Z AUTO 18006KT 1/2SM OVC002 21/21 A2991 RMK AO1
K5C1 150815Z AUTO 00000KT 1/2SM OVC002 21/21 A2991 RMK AO1
K5C1 150755Z AUTO 19003KT 1 3/4SM OVC002 21/21 A2991 RMK AO1
K5C1 150735Z AUTO 17003KT 5SM OVC004 21/21 A2991 RMK AO1
K5C1 150715Z AUTO 00000KT 7SM OVC004 21/21 A2991 RMK AO1